LEPP/PNA METAR and TAF weather

Enter ICAO airport designator
Station Type Date Time Source
LEPP METAR 2019/08/23 15:00 UTC NOAA

LEPP 231500Z 17005KT 120V250 CAVOK 33/07 Q1019


Station Type Date Time Source
LEPP Decoded METAR 2019/08/23 15:00 UTC NOAA

Station name not available
Aug 23, 2019 - 11:00 AM EDT / 2019.08.23 1500 UTC
Wind: from the S (170 degrees) at 6 MPH (5 KT) (direction variable):0
Visibility: greater than 7 mile(s):0
Temperature: 91 F (33 C)
Dew Point: 44 F (7 C)
Relative Humidity: 19%
Pressure (altimeter): 30.09 in. Hg (1019 hPa)
ob: LEPP 231500Z 17005KT 120V250 CAVOK 33/07 Q1019
cycle: 15

Station Type Date Time Source
LEPP TAF 2019/08/23 15:30 UTC NOAA

TAF LEPP 231400Z 2315/2415 18005KT CAVOK TX33/2315Z TN14/2406Z

Example: see airport list